sensor_id;sensor_type;location;lat;lon;timestamp;pressure;altitude;pressure_sealevel;temperature;humidity
55914;BME280;58179;48.776;9.124;2023-09-18T03:52:39;96774.91;;;19.40;100.00
55914;BME280;58179;48.776;9.124;2023-09-18T03:55:06;96781.22;;;19.44;100.00
55914;BME280;58179;48.776;9.124;2023-09-18T03:57:33;96783.25;;;19.47;100.00
55914;BME280;58179;48.776;9.124;2023-09-18T03:59:59;96791.94;;;19.53;100.00
55914;BME280;58179;48.776;9.124;2023-09-18T04:02:26;96792.06;;;19.56;100.00
55914;BME280;58179;48.776;9.124;2023-09-18T04:04:54;96796.16;;;19.62;100.00
55914;BME280;58179;48.776;9.124;2023-09-18T04:07:21;96792.03;;;19.65;100.00
55914;BME280;58179;48.776;9.124;2023-09-18T04:09:48;96780.50;;;19.64;100.00
55914;BME280;58179;48.776;9.124;2023-09-18T04:12:15;96777.03;;;19.64;100.00
55914;BME280;58179;48.776;9.124;2023-09-18T04:14:41;96760.00;;;19.60;100.00
55914;BME280;58179;48.776;9.124;2023-09-18T04:17:08;96761.31;;;19.54;100.00
55914;BME280;58179;48.776;9.124;2023-09-18T04:19:34;96749.78;;;19.45;100.00
55914;BME280;58179;48.776;9.124;2023-09-18T04:22:01;96740.34;;;19.39;100.00
55914;BME280;58179;48.776;9.124;2023-09-18T04:24:27;96732.16;;;19.35;100.00
55914;BME280;58179;48.776;9.124;2023-09-18T04:26:55;96726.66;;;19.31;100.00
55914;BME280;58179;48.776;9.124;2023-09-18T04:29:21;96707.72;;;19.28;100.00
55914;BME280;58179;48.776;9.124;2023-09-18T04:31:47;96701.56;;;19.27;100.00
55914;BME280;58179;48.776;9.124;2023-09-18T04:34:14;96694.28;;;19.28;100.00
55914;BME280;58179;48.776;9.124;2023-09-18T04:36:40;96659.41;;;19.28;100.00
55914;BME280;58179;48.776;9.124;2023-09-18T04:39:07;96647.56;;;19.29;100.00
55914;BME280;58179;48.776;9.124;2023-09-18T04:41:35;96665.56;;;19.28;100.00
55914;BME280;58179;48.776;9.124;2023-09-18T04:44:02;96680.41;;;19.26;100.00
55914;BME280;58179;48.776;9.124;2023-09-18T04:46:30;96659.59;;;19.23;100.00
55914;BME280;58179;48.776;9.124;2023-09-18T04:48:57;96649.81;;;19.18;100.00
55914;BME280;58179;48.776;9.124;2023-09-18T04:51:23;96661.22;;;19.15;100.00
55914;BME280;58179;48.776;9.124;2023-09-18T04:53:49;96666.44;;;19.12;100.00
55914;BME280;58179;48.776;9.124;2023-09-18T04:56:17;96675.16;;;19.09;100.00
55914;BME280;58179;48.776;9.124;2023-09-18T04:58:44;96685.41;;;19.07;100.00
55914;BME280;58179;48.776;9.124;2023-09-18T05:01:11;96689.97;;;19.06;100.00
55914;BME280;58179;48.776;9.124;2023-09-18T05:03:37;96691.88;;;19.06;100.00
55914;BME280;58179;48.776;9.124;2023-09-18T05:06:04;96676.88;;;19.05;100.00
55914;BME280;58179;48.776;9.124;2023-09-18T05:08:30;96664.91;;;19.02;100.00
55914;BME280;58179;48.776;9.124;2023-09-18T05:10:57;96668.72;;;19.01;100.00
55914;BME280;58179;48.776;9.124;2023-09-18T05:13:23;96663.34;;;19.01;100.00
55914;BME280;58179;48.776;9.124;2023-09-18T05:15:49;96670.72;;;19.04;100.00
55914;BME280;58179;48.776;9.124;2023-09-18T05:18:17;96678.94;;;19.08;100.00
55914;BME280;58179;48.776;9.124;2023-09-18T05:20:43;96692.78;;;19.10;100.00
55914;BME280;58179;48.776;9.124;2023-09-18T05:23:09;96710.94;;;19.13;100.00
55914;BME280;58179;48.776;9.124;2023-09-18T05:25:36;96721.97;;;19.11;100.00
55914;BME280;58179;48.776;9.124;2023-09-18T05:28:04;96711.41;;;19.15;100.00
55914;BME280;58179;48.776;9.124;2023-09-18T05:30:33;96701.91;;;19.17;100.00
55914;BME280;58179;48.776;9.124;2023-09-18T05:33:01;96688.97;;;19.19;100.00
55914;BME280;58179;48.776;9.124;2023-09-18T05:35:32;96698.59;;;19.20;100.00
55914;BME280;58179;48.776;9.124;2023-09-18T05:37:59;96701.09;;;19.25;100.00
55914;BME280;58179;48.776;9.124;2023-09-18T05:40:26;96709.13;;;19.25;100.00
55914;BME280;58179;48.776;9.124;2023-09-18T05:42:56;96707.59;;;19.24;100.00
55914;BME280;58179;48.776;9.124;2023-09-18T05:45:23;96714.50;;;19.25;100.00
55914;BME280;58179;48.776;9.124;2023-09-18T05:47:49;96727.91;;;19.25;100.00
55914;BME280;58179;48.776;9.124;2023-09-18T05:50:16;96711.81;;;19.25;100.00
55914;BME280;58179;48.776;9.124;2023-09-18T05:52:45;96711.03;;;19.25;100.00
55914;BME280;58179;48.776;9.124;2023-09-18T05:55:12;96705.03;;;19.28;100.00
55914;BME280;58179;48.776;9.124;2023-09-18T05:57:39;96704.41;;;19.31;100.00
55914;BME280;58179;48.776;9.124;2023-09-18T06:00:06;96702.50;;;19.31;100.00
55914;BME280;58179;48.776;9.124;2023-09-18T06:02:33;96700.25;;;19.33;100.00
55914;BME280;58179;48.776;9.124;2023-09-18T06:05:00;96696.47;;;19.34;100.00
55914;BME280;58179;48.776;9.124;2023-09-18T06:07:27;96690.19;;;19.30;100.00
55914;BME280;58179;48.776;9.124;2023-09-18T06:09:54;96681.59;;;19.16;100.00
55914;BME280;58179;48.776;9.124;2023-09-18T06:12:21;96679.56;;;19.05;100.00
55914;BME280;58179;48.776;9.124;2023-09-18T06:14:47;96680.84;;;18.99;100.00
55914;BME280;58179;48.776;9.124;2023-09-18T06:17:14;96692.09;;;18.92;100.00
55914;BME280;58179;48.776;9.124;2023-09-18T06:19:40;96689.25;;;18.88;100.00
55914;BME280;58179;48.776;9.124;2023-09-18T06:22:07;96695.28;;;18.85;100.00
55914;BME280;58179;48.776;9.124;2023-09-18T06:24:35;96690.22;;;18.84;100.00
55914;BME280;58179;48.776;9.124;2023-09-18T06:27:04;96699.84;;;18.85;100.00
55914;BME280;58179;48.776;9.124;2023-09-18T06:29:30;96694.94;;;18.87;100.00
55914;BME280;58179;48.776;9.124;2023-09-18T06:31:56;96700.28;;;18.87;100.00
55914;BME280;58179;48.776;9.124;2023-09-18T06:34:23;96702.22;;;18.86;100.00
55914;BME280;58179;48.776;9.124;2023-09-18T06:36:49;96701.88;;;18.88;100.00
55914;BME280;58179;48.776;9.124;2023-09-18T06:39:15;96689.72;;;18.90;100.00
55914;BME280;58179;48.776;9.124;2023-09-18T06:41:42;96692.56;;;18.94;100.00
55914;BME280;58179;48.776;9.124;2023-09-18T06:44:09;96702.94;;;18.95;100.00
55914;BME280;58179;48.776;9.124;2023-09-18T06:46:36;96701.56;;;18.89;100.00
55914;BME280;58179;48.776;9.124;2023-09-18T06:49:02;96712.59;;;18.88;100.00
55914;BME280;58179;48.776;9.124;2023-09-18T06:51:29;96710.25;;;18.86;100.00
55914;BME280;58179;48.776;9.124;2023-09-18T06:53:56;96704.41;;;18.84;100.00
55914;BME280;58179;48.776;9.124;2023-09-18T06:56:23;96719.53;;;18.89;100.00
55914;BME280;58179;48.776;9.124;2023-09-18T06:58:50;96720.94;;;18.95;100.00
55914;BME280;58179;48.776;9.124;2023-09-18T07:01:18;96724.56;;;18.99;100.00
55914;BME280;58179;48.776;9.124;2023-09-18T07:03:45;96728.63;;;19.05;100.00
55914;BME280;58179;48.776;9.124;2023-09-18T07:06:13;96718.06;;;19.09;100.00
55914;BME280;58179;48.776;9.124;2023-09-18T07:08:40;96720.09;;;19.12;100.00
55914;BME280;58179;48.776;9.124;2023-09-18T07:11:06;96728.31;;;19.15;100.00
55914;BME280;58179;48.776;9.124;2023-09-18T07:13:32;96723.84;;;19.19;100.00
55914;BME280;58179;48.776;9.124;2023-09-18T07:15:58;96718.94;;;19.21;100.00
55914;BME280;58179;48.776;9.124;2023-09-18T07:18:26;96713.41;;;19.26;100.00
55914;BME280;58179;48.776;9.124;2023-09-18T07:20:52;96704.72;;;19.29;100.00
55914;BME280;58179;48.776;9.124;2023-09-18T07:23:18;96704.53;;;19.34;100.00
55914;BME280;58179;48.776;9.124;2023-09-18T07:25:44;96712.72;;;19.38;100.00
55914;BME280;58179;48.776;9.124;2023-09-18T07:28:13;96711.09;;;19.46;100.00
55914;BME280;58179;48.776;9.124;2023-09-18T07:30:43;96710.16;;;19.42;100.00
55914;BME280;58179;48.776;9.124;2023-09-18T07:33:10;96713.31;;;19.44;100.00
55914;BME280;58179;48.776;9.124;2023-09-18T07:35:37;96716.47;;;19.46;100.00
55914;BME280;58179;48.776;9.124;2023-09-18T07:38:04;96730.06;;;19.49;100.00
55914;BME280;58179;48.776;9.124;2023-09-18T07:40:30;96737.78;;;19.51;100.00
55914;BME280;58179;48.776;9.124;2023-09-18T07:42:56;96743.94;;;19.51;100.00
55914;BME280;58179;48.776;9.124;2023-09-18T07:45:23;96752.47;;;19.53;100.00
55914;BME280;58179;48.776;9.124;2023-09-18T07:47:50;96759.69;;;19.61;100.00
55914;BME280;58179;48.776;9.124;2023-09-18T07:50:16;96763.81;;;19.59;100.00
55914;BME280;58179;48.776;9.124;2023-09-18T07:52:44;96770.75;;;19.60;100.00
55914;BME280;58179;48.776;9.124;2023-09-18T07:55:11;96770.88;;;19.63;100.00
55914;BME280;58179;48.776;9.124;2023-09-18T07:57:37;96776.72;;;19.65;100.00
55914;BME280;58179;48.776;9.124;2023-09-18T08:00:04;96760.28;;;19.67;100.00
55914;BME280;58179;48.776;9.124;2023-09-18T08:02:33;96758.88;;;19.69;100.00
55914;BME280;58179;48.776;9.124;2023-09-18T08:05:00;96763.56;;;19.73;100.00
55914;BME280;58179;48.776;9.124;2023-09-18T08:07:27;96768.94;;;19.73;100.00
55914;BME280;58179;48.776;9.124;2023-09-18T08:09:55;96771.31;;;19.74;100.00
55914;BME280;58179;48.776;9.124;2023-09-18T08:12:22;96789.03;;;19.66;100.00
55914;BME280;58179;48.776;9.124;2023-09-18T08:14:48;96778.63;;;19.65;100.00
55914;BME280;58179;48.776;9.124;2023-09-18T08:17:16;96782.09;;;19.65;100.00
55914;BME280;58179;48.776;9.124;2023-09-18T08:19:43;96790.63;;;19.67;100.00
55914;BME280;58179;48.776;9.124;2023-09-18T08:22:10;96788.06;;;19.71;100.00
55914;BME280;58179;48.776;9.124;2023-09-18T08:24:41;96798.00;;;19.70;100.00
55914;BME280;58179;48.776;9.124;2023-09-18T08:27:09;96815.38;;;19.73;100.00
55914;BME280;58179;48.776;9.124;2023-09-18T08:29:35;96836.75;;;19.69;100.00
55914;BME280;58179;48.776;9.124;2023-09-18T08:32:01;96836.88;;;19.73;100.00
55914;BME280;58179;48.776;9.124;2023-09-18T08:34:27;96832.44;;;19.77;100.00
55914;BME280;58179;48.776;9.124;2023-09-18T08:36:54;96835.75;;;19.74;100.00
55914;BME280;58179;48.776;9.124;2023-09-18T08:39:20;96841.63;;;19.67;100.00
55914;BME280;58179;48.776;9.124;2023-09-18T08:41:50;96829.50;;;19.61;100.00
55914;BME280;58179;48.776;9.124;2023-09-18T08:44:18;96835.69;;;19.53;100.00
55914;BME280;58179;48.776;9.124;2023-09-18T08:46:45;96840.91;;;19.50;100.00
55914;BME280;58179;48.776;9.124;2023-09-18T08:49:12;96841.84;;;19.45;100.00
55914;BME280;58179;48.776;9.124;2023-09-18T08:51:40;96833.81;;;19.37;100.00
55914;BME280;58179;48.776;9.124;2023-09-18T08:54:08;96837.50;;;19.23;100.00
55914;BME280;58179;48.776;9.124;2023-09-18T08:56:36;96832.28;;;19.10;100.00
55914;BME280;58179;48.776;9.124;2023-09-18T08:59:02;96838.97;;;18.86;100.00
55914;BME280;58179;48.776;9.124;2023-09-18T09:01:30;96853.31;;;18.65;100.00
55914;BME280;58179;48.776;9.124;2023-09-18T09:03:56;96861.34;;;18.47;100.00
55914;BME280;58179;48.776;9.124;2023-09-18T09:06:22;96878.03;;;18.36;100.00
55914;BME280;58179;48.776;9.124;2023-09-18T09:08:50;96878.34;;;18.26;100.00
55914;BME280;58179;48.776;9.124;2023-09-18T09:11:17;96882.25;;;18.19;100.00
55914;BME280;58179;48.776;9.124;2023-09-18T09:13:44;96883.81;;;18.12;100.00
55914;BME280;58179;48.776;9.124;2023-09-18T09:16:12;96902.41;;;18.08;100.00
55914;BME280;58179;48.776;9.124;2023-09-18T09:18:48;96889.31;;;18.07;100.00
55914;BME280;58179;48.776;9.124;2023-09-18T09:21:15;96893.41;;;18.04;100.00
55914;BME280;58179;48.776;9.124;2023-09-18T09:23:46;96901.28;;;18.01;100.00
55914;BME280;58179;48.776;9.124;2023-09-18T09:26:16;96905.84;;;18.00;100.00
55914;BME280;58179;48.776;9.124;2023-09-18T09:28:43;96908.03;;;17.98;100.00
55914;BME280;58179;48.776;9.124;2023-09-18T09:31:10;96918.28;;;17.96;100.00
55914;BME280;58179;48.776;9.124;2023-09-18T09:33:38;96915.91;;;17.95;100.00
55914;BME280;58179;48.776;9.124;2023-09-18T09:36:07;96910.72;;;17.98;100.00
55914;BME280;58179;48.776;9.124;2023-09-18T09:38:34;96903.34;;;18.04;100.00
55914;BME280;58179;48.776;9.124;2023-09-18T09:41:01;96906.78;;;18.04;100.00
55914;BME280;58179;48.776;9.124;2023-09-18T09:43:29;96890.25;;;18.02;100.00
55914;BME280;58179;48.776;9.124;2023-09-18T09:46:00;96908.56;;;18.09;100.00
55914;BME280;58179;48.776;9.124;2023-09-18T09:48:27;96911.38;;;18.12;100.00
55914;BME280;58179;48.776;9.124;2023-09-18T09:50:59;96903.22;;;18.17;100.00
55914;BME280;58179;48.776;9.124;2023-09-18T09:53:42;96929.72;;;18.19;100.00
55914;BME280;58179;48.776;9.124;2023-09-18T09:56:09;96912.84;;;18.18;100.00
55914;BME280;58179;48.776;9.124;2023-09-18T09:58:36;96905.59;;;18.19;100.00
55914;BME280;58179;48.776;9.124;2023-09-18T10:01:04;96904.81;;;18.27;100.00
55914;BME280;58179;48.776;9.124;2023-09-18T10:03:38;96912.88;;;18.44;100.00
55914;BME280;58179;48.776;9.124;2023-09-18T10:06:06;96923.19;;;18.60;100.00
55914;BME280;58179;48.776;9.124;2023-09-18T10:08:36;96919.88;;;18.63;100.00
55914;BME280;58179;48.776;9.124;2023-09-18T10:11:06;96926.50;;;18.57;100.00
55914;BME280;58179;48.776;9.124;2023-09-18T10:13:40;96919.97;;;18.40;100.00
55914;BME280;58179;48.776;9.124;2023-09-18T10:16:07;96919.16;;;18.31;100.00
55914;BME280;58179;48.776;9.124;2023-09-18T10:18:42;96937.31;;;18.34;100.00
55914;BME280;58179;48.776;9.124;2023-09-18T10:21:17;96984.75;;;18.42;100.00
55914;BME280;58179;48.776;9.124;2023-09-18T10:24:02;96982.56;;;18.44;100.00
55914;BME280;58179;48.776;9.124;2023-09-18T10:26:35;96988.34;;;18.29;100.00
55914;BME280;58179;48.776;9.124;2023-09-18T10:29:04;96986.31;;;18.26;100.00
55914;BME280;58179;48.776;9.124;2023-09-18T10:31:35;96983.94;;;18.25;100.00
55914;BME280;58179;48.776;9.124;2023-09-18T10:34:03;96982.34;;;18.24;100.00
55914;BME280;58179;48.776;9.124;2023-09-18T10:36:33;96981.84;;;18.22;100.00
55914;BME280;58179;48.776;9.124;2023-09-18T10:39:00;96985.19;;;18.18;100.00
55914;BME280;58179;48.776;9.124;2023-09-18T10:41:27;96996.00;;;18.13;100.00
55914;BME280;58179;48.776;9.124;2023-09-18T10:43:54;96985.69;;;17.98;100.00
55914;BME280;58179;48.776;9.124;2023-09-18T10:46:23;96976.22;;;17.92;100.00
55914;BME280;58179;48.776;9.124;2023-09-18T10:48:51;96973.84;;;17.91;100.00
55914;BME280;58179;48.776;9.124;2023-09-18T10:51:20;96961.13;;;17.96;100.00
55914;BME280;58179;48.776;9.124;2023-09-18T10:53:49;96955.63;;;18.01;100.00
55914;BME280;58179;48.776;9.124;2023-09-18T10:56:15;96954.09;;;18.09;100.00
55914;BME280;58179;48.776;9.124;2023-09-18T10:58:44;96949.06;;;18.16;100.00
55914;BME280;58179;48.776;9.124;2023-09-18T11:01:12;96949.38;;;18.14;100.00
55914;BME280;58179;48.776;9.124;2023-09-18T11:03:39;96936.25;;;18.04;100.00
55914;BME280;58179;48.776;9.124;2023-09-18T11:06:08;96935.47;;;18.04;100.00
55914;BME280;58179;48.776;9.124;2023-09-18T11:08:44;96932.78;;;17.95;100.00
55914;BME280;58179;48.776;9.124;2023-09-18T11:11:13;96950.28;;;18.01;100.00
55914;BME280;58179;48.776;9.124;2023-09-18T11:13:46;96948.53;;;18.05;100.00
55914;BME280;58179;48.776;9.124;2023-09-18T11:16:18;96944.97;;;18.10;100.00
55914;BME280;58179;48.776;9.124;2023-09-18T11:18:47;96949.03;;;18.07;100.00
55914;BME280;58179;48.776;9.124;2023-09-18T11:21:16;96966.69;;;18.08;100.00
55914;BME280;58179;48.776;9.124;2023-09-18T11:23:44;96947.63;;;18.10;100.00
55914;BME280;58179;48.776;9.124;2023-09-18T11:26:14;96949.88;;;18.16;100.00
55914;BME280;58179;48.776;9.124;2023-09-18T11:28:41;96916.13;;;18.15;100.00
55914;BME280;58179;48.776;9.124;2023-09-18T11:31:09;96920.69;;;18.15;100.00
55914;BME280;58179;48.776;9.124;2023-09-18T11:33:37;96933.75;;;18.08;100.00
55914;BME280;58179;48.776;9.124;2023-09-18T11:36:05;96934.06;;;18.06;100.00
55914;BME280;58179;48.776;9.124;2023-09-18T11:38:33;96948.53;;;18.05;100.00
55914;BME280;58179;48.776;9.124;2023-09-18T11:41:00;96970.94;;;18.09;100.00
55914;BME280;58179;48.776;9.124;2023-09-18T11:43:31;96960.88;;;18.15;100.00
55914;BME280;58179;48.776;9.124;2023-09-18T11:46:00;96952.34;;;18.13;100.00
55914;BME280;58179;48.776;9.124;2023-09-18T11:48:30;96957.13;;;18.25;100.00
55914;BME280;58179;48.776;9.124;2023-09-18T11:51:00;96967.88;;;18.33;100.00
55914;BME280;58179;48.776;9.124;2023-09-18T11:53:32;96959.69;;;18.38;100.00
55914;BME280;58179;48.776;9.124;2023-09-18T11:56:00;96967.56;;;18.35;100.00
55914;BME280;58179;48.776;9.124;2023-09-18T11:58:26;96962.16;;;18.17;100.00
55914;BME280;58179;48.776;9.124;2023-09-18T12:00:54;96960.72;;;18.11;100.00
55914;BME280;58179;48.776;9.124;2023-09-18T12:03:22;96966.56;;;18.22;100.00
55914;BME280;58179;48.776;9.124;2023-09-18T12:05:56;96980.13;;;18.17;100.00
55914;BME280;58179;48.776;9.124;2023-09-18T12:08:23;96985.50;;;18.26;100.00
55914;BME280;58179;48.776;9.124;2023-09-18T12:10:52;96983.78;;;18.30;100.00
55914;BME280;58179;48.776;9.124;2023-09-18T12:13:19;96975.47;;;18.40;100.00
55914;BME280;58179;48.776;9.124;2023-09-18T12:15:45;96952.47;;;18.47;100.00
55914;BME280;58179;48.776;9.124;2023-09-18T12:18:15;96950.06;;;18.37;100.00
55914;BME280;58179;48.776;9.124;2023-09-18T12:20:48;96947.84;;;18.31;100.00
55914;BME280;58179;48.776;9.124;2023-09-18T12:23:15;96949.91;;;18.25;100.00
55914;BME280;58179;48.776;9.124;2023-09-18T12:25:41;96955.25;;;18.25;100.00
55914;BME280;58179;48.776;9.124;2023-09-18T12:28:08;96949.38;;;18.14;100.00
55914;BME280;58179;48.776;9.124;2023-09-18T12:30:34;96945.00;;;18.18;100.00
55914;BME280;58179;48.776;9.124;2023-09-18T12:33:01;96938.25;;;18.38;100.00
55914;BME280;58179;48.776;9.124;2023-09-18T12:35:31;96936.84;;;18.49;100.00
55914;BME280;58179;48.776;9.124;2023-09-18T12:37:58;96940.97;;;18.55;100.00
55914;BME280;58179;48.776;9.124;2023-09-18T12:40:26;96938.03;;;18.74;100.00
55914;BME280;58179;48.776;9.124;2023-09-18T12:42:55;96939.47;;;18.89;100.00
55914;BME280;58179;48.776;9.124;2023-09-18T12:45:21;96933.31;;;19.23;100.00
55914;BME280;58179;48.776;9.124;2023-09-18T12:47:50;96951.41;;;19.69;100.00
55914;BME280;58179;48.776;9.124;2023-09-18T12:50:16;96950.66;;;20.06;100.00
55914;BME280;58179;48.776;9.124;2023-09-18T12:52:45;96945.75;;;20.00;100.00
55914;BME280;58179;48.776;9.124;2023-09-18T12:55:21;96932.56;;;20.16;100.00
55914;BME280;58179;48.776;9.124;2023-09-18T12:57:49;96930.81;;;20.28;100.00
55914;BME280;58179;48.776;9.124;2023-09-18T13:00:17;96939.91;;;20.44;100.00
55914;BME280;58179;48.776;9.124;2023-09-18T13:02:46;96933.63;;;20.32;100.00
55914;BME280;58179;48.776;9.124;2023-09-18T13:05:12;96941.69;;;20.32;100.00
55914;BME280;58179;48.776;9.124;2023-09-18T13:07:51;96949.44;;;20.33;100.00
55914;BME280;58179;48.776;9.124;2023-09-18T13:10:17;96919.94;;;20.16;100.00
55914;BME280;58179;48.776;9.124;2023-09-18T13:12:45;96919.06;;;20.33;100.00
55914;BME280;58179;48.776;9.124;2023-09-18T13:15:13;96917.66;;;20.35;100.00
55914;BME280;58179;48.776;9.124;2023-09-18T13:17:41;96912.72;;;20.67;100.00
55914;BME280;58179;48.776;9.124;2023-09-18T13:20:12;96908.56;;;20.90;100.00
55914;BME280;58179;48.776;9.124;2023-09-18T13:22:40;96918.03;;;20.96;100.00
55914;BME280;58179;48.776;9.124;2023-09-18T13:25:09;96914.09;;;20.73;100.00
55914;BME280;58179;48.776;9.124;2023-09-18T13:27:37;96909.78;;;20.60;100.00
55914;BME280;58179;48.776;9.124;2023-09-18T13:30:04;96918.59;;;20.60;100.00
55914;BME280;58179;48.776;9.124;2023-09-18T13:32:34;96912.25;;;20.65;100.00
55914;BME280;58179;48.776;9.124;2023-09-18T13:35:00;96900.81;;;21.09;100.00
55914;BME280;58179;48.776;9.124;2023-09-18T13:37:26;96922.34;;;21.63;100.00
55914;BME280;58179;48.776;9.124;2023-09-18T13:39:55;96922.44;;;21.99;100.00
55914;BME280;58179;48.776;9.124;2023-09-18T13:42:22;96909.94;;;22.44;100.00
55914;BME280;58179;48.776;9.124;2023-09-18T13:44:49;96901.06;;;22.43;100.00
55914;BME280;58179;48.776;9.124;2023-09-18T13:47:16;96889.19;;;22.20;100.00
55914;BME280;58179;48.776;9.124;2023-09-18T13:49:42;96902.44;;;22.13;100.00
55914;BME280;58179;48.776;9.124;2023-09-18T13:52:08;96882.31;;;21.86;100.00
55914;BME280;58179;48.776;9.124;2023-09-18T13:54:34;96887.88;;;21.81;100.00
55914;BME280;58179;48.776;9.124;2023-09-18T13:57:02;96897.22;;;21.95;100.00
55914;BME280;58179;48.776;9.124;2023-09-18T13:59:32;96886.81;;;21.94;100.00
55914;BME280;58179;48.776;9.124;2023-09-18T14:01:59;96892.06;;;21.78;100.00
55914;BME280;58179;48.776;9.124;2023-09-18T14:04:25;96877.75;;;21.41;100.00
55914;BME280;58179;48.776;9.124;2023-09-18T14:06:52;96869.19;;;21.27;100.00
55914;BME280;58179;48.776;9.124;2023-09-18T14:09:19;96879.16;;;21.27;100.00
55914;BME280;58179;48.776;9.124;2023-09-18T14:11:45;96869.94;;;21.28;100.00
55914;BME280;58179;48.776;9.124;2023-09-18T14:14:12;96876.25;;;21.32;100.00
55914;BME280;58179;48.776;9.124;2023-09-18T14:16:39;96873.56;;;21.32;100.00
55914;BME280;58179;48.776;9.124;2023-09-18T14:19:06;96884.09;;;21.37;100.00
55914;BME280;58179;48.776;9.124;2023-09-18T14:21:32;96838.06;;;21.17;100.00
55914;BME280;58179;48.776;9.124;2023-09-18T14:23:59;96845.47;;;21.20;100.00
55914;BME280;58179;48.776;9.124;2023-09-18T14:26:26;96871.88;;;21.27;100.00
55914;BME280;58179;48.776;9.124;2023-09-18T14:28:52;96855.72;;;21.27;100.00
55914;BME280;58179;48.776;9.124;2023-09-18T14:31:19;96856.16;;;21.29;100.00
55914;BME280;58179;48.776;9.124;2023-09-18T14:33:46;96872.53;;;21.36;100.00
55914;BME280;58179;48.776;9.124;2023-09-18T14:36:13;96881.66;;;21.44;100.00
55914;BME280;58179;48.776;9.124;2023-09-18T14:38:39;96844.19;;;21.51;100.00
55914;BME280;58179;48.776;9.124;2023-09-18T14:41:06;96851.75;;;21.70;100.00
55914;BME280;58179;48.776;9.124;2023-09-18T14:43:33;96868.94;;;21.89;100.00
55914;BME280;58179;48.776;9.124;2023-09-18T14:45:59;96845.38;;;22.11;100.00
55914;BME280;58179;48.776;9.124;2023-09-18T14:48:25;96818.06;;;22.12;100.00
55914;BME280;58179;48.776;9.124;2023-09-18T14:50:55;96826.94;;;22.65;100.00
55914;BME280;58179;48.776;9.124;2023-09-18T14:53:21;96815.91;;;22.82;100.00
55914;BME280;58179;48.776;9.124;2023-09-18T14:55:48;96823.47;;;23.20;100.00
55914;BME280;58179;48.776;9.124;2023-09-18T14:58:15;96788.06;;;22.94;100.00
55914;BME280;58179;48.776;9.124;2023-09-18T15:00:41;96774.81;;;22.89;100.00
55914;BME280;58179;48.776;9.124;2023-09-18T15:03:07;96782.78;;;23.13;100.00
55914;BME280;58179;48.776;9.124;2023-09-18T15:05:33;96767.31;;;22.82;100.00
55914;BME280;58179;48.776;9.124;2023-09-18T15:08:01;96773.88;;;22.97;100.00
55914;BME280;58179;48.776;9.124;2023-09-18T15:10:27;96771.88;;;22.94;100.00
55914;BME280;58179;48.776;9.124;2023-09-18T15:12:54;96760.94;;;22.74;100.00
55914;BME280;58179;48.776;9.124;2023-09-18T15:15:21;96763.16;;;22.72;100.00
55914;BME280;58179;48.776;9.124;2023-09-18T15:17:47;96774.56;;;22.66;100.00
55914;BME280;58179;48.776;9.124;2023-09-18T15:20:14;96780.00;;;22.54;100.00
55914;BME280;58179;48.776;9.124;2023-09-18T15:22:43;96757.06;;;22.32;100.00
55914;BME280;58179;48.776;9.124;2023-09-18T15:25:10;96756.47;;;22.26;100.00
55914;BME280;58179;48.776;9.124;2023-09-18T15:27:37;96765.66;;;22.10;100.00
55914;BME280;58179;48.776;9.124;2023-09-18T15:30:04;96762.75;;;22.03;100.00
55914;BME280;58179;48.776;9.124;2023-09-18T15:32:32;96776.88;;;21.99;100.00
55914;BME280;58179;48.776;9.124;2023-09-18T15:35:11;96753.66;;;21.71;100.00
55914;BME280;58179;48.776;9.124;2023-09-18T15:37:37;96747.91;;;21.36;100.00
55914;BME280;58179;48.776;9.124;2023-09-18T15:40:04;96749.16;;;21.26;100.00
55914;BME280;58179;48.776;9.124;2023-09-18T15:42:32;96742.44;;;21.20;100.00
55914;BME280;58179;48.776;9.124;2023-09-18T15:44:59;96746.94;;;21.07;100.00
55914;BME280;58179;48.776;9.124;2023-09-18T15:47:25;96740.53;;;20.88;100.00
55914;BME280;58179;48.776;9.124;2023-09-18T15:49:51;96740.41;;;20.84;100.00
55914;BME280;58179;48.776;9.124;2023-09-18T15:52:17;96760.41;;;20.95;100.00
55914;BME280;58179;48.776;9.124;2023-09-18T15:54:43;96747.13;;;20.90;100.00
55914;BME280;58179;48.776;9.124;2023-09-18T15:57:10;96753.25;;;21.11;100.00
55914;BME280;58179;48.776;9.124;2023-09-18T15:59:38;96756.78;;;21.24;100.00
55914;BME280;58179;48.776;9.124;2023-09-18T16:04:41;96741.56;;;21.07;100.00
55914;BME280;58179;48.776;9.124;2023-09-18T16:07:08;96749.63;;;20.95;100.00
55914;BME280;58179;48.776;9.124;2023-09-18T16:09:38;96738.69;;;20.67;100.00
55914;BME280;58179;48.776;9.124;2023-09-18T16:12:04;96736.03;;;20.46;100.00
55914;BME280;58179;48.776;9.124;2023-09-18T16:14:32;96734.53;;;20.37;100.00
55914;BME280;58179;48.776;9.124;2023-09-18T16:17:00;96730.84;;;20.21;100.00
55914;BME280;58179;48.776;9.124;2023-09-18T16:19:30;96732.56;;;20.04;100.00
55914;BME280;58179;48.776;9.124;2023-09-18T16:21:56;96749.47;;;20.05;100.00
55914;BME280;58179;48.776;9.124;2023-09-18T16:24:23;96745.72;;;19.97;100.00
55914;BME280;58179;48.776;9.124;2023-09-18T16:26:49;96738.63;;;19.93;100.00
55914;BME280;58179;48.776;9.124;2023-09-18T16:29:15;96759.00;;;19.94;100.00
55914;BME280;58179;48.776;9.124;2023-09-18T16:31:43;96772.16;;;19.87;100.00
55914;BME280;58179;48.776;9.124;2023-09-18T16:34:11;96763.06;;;19.79;100.00
55914;BME280;58179;48.776;9.124;2023-09-18T16:36:37;96783.44;;;19.80;100.00
55914;BME280;58179;48.776;9.124;2023-09-18T16:39:03;96779.84;;;19.76;100.00
55914;BME280;58179;48.776;9.124;2023-09-18T16:41:30;96778.25;;;19.75;100.00
55914;BME280;58179;48.776;9.124;2023-09-18T16:43:56;96781.91;;;19.70;100.00
55914;BME280;58179;48.776;9.124;2023-09-18T16:46:22;96774.81;;;19.66;100.00